Terminal Aerodrome Forecast
Issued by NWS Des Moines, IA

Home | Current Version | Previous Version | Text Only | Print | Product List | Glossary On
Versions: 1 2 3 4 5 6 7 8 9 10 11 12 13 14 15 16 17 18 19 20 21 22 23 24 25 26 27 28
000
FTUS43 KDMX 240520
TAFDSM
TAF
KDSM 240520Z 2406/2506 13007KT P6SM BKN035
     FM241100 12009KT 5SM -SHRA BKN020
     FM241400 11011KT 3SM -SHRA BR OVC009
     FM241800 17012KT 6SM BR BKN025
     FM250200 15008KT 5SM -TSRA BR BKN020CB=

USA.gov is the U.S. government's official web portal to all federal, state and local government web resources and services.